Airfield :
LOGIN :

Register | Disclaimer

   EN    FR    IT 

 










Legend :    VFR   Marginal VFR   IFR   Intensive IFR   Very Intensive IFR
Visi :
Ceiling :
>= 8 km
>= 3000ft
5 to 8 km
1000 to 3000 ft
1500m to 5 km
500 to 1000 ft
800 to 1500m
200 to 500 ft
< 800m
< 200 ft
Symbols :   Thunderstorms  Fog  Heavy snow  Heavy precipitations  Wind > 20 kt
SIGMETs :     Misc.  Thunderstorms  Icing  Turbulence  Mountain Waves  Volcanic Ashes







- Airport Elevation : 124 ft
- IATA code : AVN
- Download approach charts


LFMV - Avignon Caumont

CURRENT METAR :
  • 231730Z AUTO 35013KT CAVOK 12/03 Q1025 NOSIG

EXPIRED METARs :
  • 231700Z AUTO 35015G25KT CAVOK 13/03 Q1025 BECMG 35015KT
  • 231630Z AUTO 36012KT 330V030 CAVOK 13/04 Q1024 NOSIG
  • 231600Z AUTO 36013KT 340V040 CAVOK 14/04 Q1024 NOSIG
  • 231530Z AUTO 35012KT CAVOK 14/03 Q1024 NOSIG
  • 231500Z AUTO 35013KT 320V020 CAVOK 15/03 Q1023 NOSIG

TAF TAF LFMV
Valid from the 23 at 15:00 until the 24 at 15:00 UTC


231400Z 2315/2415 35015KT CAVOK
BECMG 2319/2322 VRB05KT
ATIS : +33 4 90 84 32 84
No reported NOTAMs for that airfield.



MET'MAP, your aeronautical weather chart ! - Copyright ORBIFLY December 2007 - Disclaimer

ORBIFLY MET'MAP TEAM :

Programming & Development : Alexandra Zaïnal
Concept & Development : Baudouin d'Aumeries
Co-Development & Prog : Marc-Olivier Méhu
Technical & hardware support : Manuel Goepfert

Contact : metmap@orbifly.com




SOURCES & CREDITS :

   NOAA